createdAt,value
2023-03-05T00:04:13.432Z,71.91
2023-03-05T00:09:15.720Z,71.92
2023-03-05T00:14:17.833Z,72.21
2023-03-05T00:19:20.150Z,72.54
2023-03-05T00:24:22.209Z,72.60
2023-03-05T00:29:25.728Z,72.63
2023-03-05T00:34:28.792Z,72.94
2023-03-05T00:39:31.441Z,71.82
2023-03-05T00:44:33.592Z,71.95
2023-03-05T00:49:35.874Z,71.46
2023-03-05T00:54:37.952Z,72.06
2023-03-05T00:59:41.174Z,72.11
2023-03-05T01:04:45.976Z,72.02
2023-03-05T01:09:48.125Z,72.25
2023-03-05T01:14:50.261Z,71.07
2023-03-05T01:19:52.444Z,70.32
2023-03-05T01:24:54.869Z,69.81
2023-03-05T01:29:57.229Z,69.49
2023-03-05T01:35:00.571Z,69.58
2023-03-05T01:40:03.132Z,69.40
2023-03-05T01:45:12.310Z,69.80
2023-03-05T01:50:20.890Z,69.61
2023-03-05T01:55:26.531Z,69.63
2023-03-05T02:00:35.354Z,68.97
2023-03-05T02:05:39.690Z,69.10
2023-03-05T02:10:47.805Z,69.37
2023-03-05T02:15:51.247Z,69.66
2023-03-05T02:20:56.449Z,69.99
2023-03-05T02:26:00.228Z,69.63
2023-03-05T02:31:02.473Z,69.96
2023-03-05T02:36:05.010Z,69.79
2023-03-05T02:41:07.172Z,69.95
2023-03-05T02:46:09.847Z,69.55
2023-03-05T02:51:12.224Z,70.00
2023-03-05T02:56:14.382Z,69.83
2023-03-05T03:01:16.602Z,69.62
2023-03-05T03:06:18.734Z,69.11
2023-03-05T03:11:21.531Z,69.42
2023-03-05T03:16:23.684Z,69.55
2023-03-05T03:21:26.967Z,69.73
2023-03-05T03:26:29.160Z,69.93
2023-03-05T03:31:31.275Z,70.04
2023-03-05T03:36:34.687Z,70.09
2023-03-05T03:41:40.894Z,69.98
2023-03-05T03:46:44.585Z,70.29
2023-03-05T03:51:48.373Z,70.09
2023-03-05T03:56:50.852Z,69.74
2023-03-05T04:01:53.130Z,70.06
2023-03-05T04:06:55.247Z,69.98
2023-03-05T04:11:57.389Z,69.83
2023-03-05T04:16:59.587Z,69.93
2023-03-05T04:22:01.754Z,69.72
2023-03-05T04:27:04.098Z,70.00
2023-03-05T04:32:06.780Z,70.07
2023-03-05T04:37:08.881Z,70.14
2023-03-05T04:42:11.017Z,69.65
2023-03-05T04:47:13.170Z,69.91
2023-03-05T04:52:15.606Z,69.72
2023-03-05T04:57:18.036Z,70.02
2023-03-05T05:02:20.134Z,70.09
2023-03-05T05:07:22.337Z,69.79
2023-03-05T05:12:24.515Z,69.87
2023-03-05T05:17:28.173Z,69.96
2023-03-05T05:22:30.344Z,70.11
2023-03-05T05:27:32.633Z,70.06
2023-03-05T05:32:35.000Z,69.60
2023-03-05T05:37:37.164Z,69.67
2023-03-05T05:42:39.450Z,69.03
2023-03-05T05:47:41.575Z,68.98
2023-03-05T05:52:43.745Z,68.91
2023-03-05T05:57:45.965Z,68.90
2023-03-05T06:02:48.197Z,68.58
2023-03-05T06:07:50.385Z,68.22
2023-03-05T06:12:52.641Z,68.19
2023-03-05T06:17:54.869Z,67.88
2023-03-05T06:22:57.003Z,67.94
2023-03-05T06:27:59.336Z,67.46
2023-03-05T06:33:01.476Z,66.99
2023-03-05T06:38:03.714Z,66.61
2023-03-05T06:43:06.211Z,65.94
2023-03-05T06:48:08.345Z,65.57
2023-03-05T06:53:10.612Z,65.28
2023-03-05T06:58:12.750Z,65.05
2023-03-05T07:03:15.160Z,64.59
2023-03-05T07:08:17.937Z,64.72
2023-03-05T07:13:21.350Z,64.91
2023-03-05T07:18:23.521Z,64.45
2023-03-05T07:23:25.651Z,64.20
2023-03-05T07:28:27.868Z,64.18
2023-03-05T07:33:30.160Z,63.71
2023-03-05T07:38:33.721Z,63.43
2023-03-05T07:43:35.956Z,63.66
2023-03-05T07:48:38.329Z,63.68
2023-03-05T07:53:40.897Z,63.66
2023-03-05T07:58:43.198Z,63.65
2023-03-05T08:03:46.867Z,63.60
2023-03-05T08:08:49.168Z,63.83
2023-03-05T08:13:51.587Z,63.69
2023-03-05T08:18:58.426Z,62.79
2023-03-05T08:24:03.202Z,62.69
2023-03-05T08:29:07.194Z,62.56
2023-03-05T08:34:09.330Z,62.29
2023-03-05T08:39:11.768Z,61.42
2023-03-05T08:44:13.914Z,60.68
2023-03-05T08:49:15.997Z,58.95
2023-03-05T08:54:18.148Z,58.91
2023-03-05T08:59:20.237Z,59.19
2023-03-05T09:04:22.368Z,59.00
2023-03-05T09:09:25.027Z,59.02
2023-03-05T09:14:30.467Z,59.33
2023-03-05T09:19:32.647Z,58.09
2023-03-05T09:24:34.832Z,55.77
2023-03-05T09:29:36.940Z,55.81
2023-03-05T09:34:39.121Z,56.19
2023-03-05T09:39:41.230Z,55.21
2023-03-05T09:45:02.355Z,54.81
2023-03-05T09:50:07.431Z,54.16
2023-03-05T09:55:14.758Z,54.27
2023-03-05T10:00:25.040Z,54.05
2023-03-05T10:06:04.098Z,53.92
2023-03-05T10:11:17.728Z,55.19
2023-03-05T10:16:41.046Z,55.93
2023-03-05T10:21:54.382Z,56.27
2023-03-05T10:27:02.628Z,55.09
2023-03-05T10:32:31.518Z,54.08
2023-03-05T10:38:04.744Z,54.46
2023-03-05T10:43:36.674Z,53.48
2023-03-05T10:48:58.765Z,53.19
2023-03-05T10:54:25.650Z,53.00
2023-03-05T10:59:28.267Z,52.62
2023-03-05T11:04:36.082Z,53.96
2023-03-05T11:09:38.361Z,52.98
2023-03-05T11:15:02.864Z,53.67
2023-03-05T11:20:26.341Z,54.25
2023-03-05T11:25:30.525Z,54.32
2023-03-05T11:30:37.535Z,52.50
2023-03-05T11:35:42.069Z,52.61
2023-03-05T11:40:45.476Z,52.40
2023-03-05T11:45:54.552Z,52.27
2023-03-05T11:51:01.028Z,53.27
2023-03-05T11:56:39.348Z,53.18
2023-03-05T12:01:54.815Z,52.79
2023-03-05T12:07:00.520Z,51.63
2023-03-05T12:12:18.700Z,50.57
2023-03-05T12:17:28.967Z,51.29
2023-03-05T12:22:39.826Z,50.16
2023-03-05T12:27:42.518Z,49.24
2023-03-05T12:33:03.647Z,48.59
2023-03-05T12:38:32.943Z,44.67
2023-03-05T12:43:35.142Z,43.76
2023-03-05T12:48:43.805Z,42.19
2023-03-05T12:53:52.048Z,41.75
2023-03-05T12:58:58.811Z,39.62
2023-03-05T13:04:10.963Z,36.23
2023-03-05T13:10:18.727Z,30.44
2023-03-05T13:15:23.616Z,34.42
2023-03-05T13:20:42.719Z,40.96
2023-03-05T13:25:47.935Z,43.93
2023-03-05T13:31:02.407Z,45.94
2023-03-05T13:36:05.849Z,48.44
2023-03-05T13:41:28.787Z,50.03
2023-03-05T13:46:39.217Z,49.91
2023-03-05T13:51:46.953Z,50.41
2023-03-05T13:57:08.495Z,50.94
2023-03-05T14:02:19.820Z,51.22
2023-03-05T14:07:52.045Z,51.63
2023-03-05T14:12:54.726Z,52.00
2023-03-05T14:18:15.776Z,51.60
2023-03-05T14:23:33.041Z,51.96
2023-03-05T14:28:37.110Z,52.24
2023-03-05T14:33:40.736Z,52.65
2023-03-05T14:38:43.317Z,52.74
2023-03-05T14:43:45.567Z,52.89
2023-03-05T14:48:48.060Z,53.25
2023-03-05T14:53:51.177Z,53.02
2023-03-05T14:58:53.902Z,53.14
2023-03-05T15:03:56.083Z,52.31
2023-03-05T15:08:58.541Z,52.19
2023-03-05T15:14:00.676Z,51.06
2023-03-05T15:19:03.813Z,51.32
2023-03-05T15:24:06.217Z,52.33
2023-03-05T15:29:09.057Z,53.00
2023-03-05T15:34:14.597Z,53.33
2023-03-05T15:39:27.378Z,53.03
2023-03-05T15:44:29.561Z,53.60
2023-03-05T15:49:31.926Z,54.18
2023-03-05T15:54:35.728Z,54.01
2023-03-05T15:59:39.299Z,54.32
2023-03-05T16:04:41.552Z,55.30
2023-03-05T16:09:50.737Z,56.17
2023-03-05T16:14:52.877Z,56.13
2023-03-05T16:19:55.879Z,57.35
2023-03-05T16:24:59.168Z,56.59
2023-03-05T16:30:01.358Z,57.35
2023-03-05T16:35:03.764Z,56.52
2023-03-05T16:40:07.239Z,57.34
2023-03-05T16:45:10.860Z,57.03
2023-03-05T16:50:13.246Z,56.80
2023-03-05T16:55:15.449Z,55.82
2023-03-05T17:00:18.855Z,54.31
2023-03-05T17:05:21.122Z,53.81
2023-03-05T17:10:23.678Z,54.25
2023-03-05T17:15:25.866Z,53.88
2023-03-05T17:20:28.156Z,53.58
2023-03-05T17:25:30.397Z,53.79
2023-03-05T17:30:33.465Z,53.98
2023-03-05T17:35:35.815Z,53.80
2023-03-05T17:40:38.052Z,54.32
2023-03-05T17:45:40.368Z,54.30
2023-03-05T17:50:44.952Z,54.44
2023-03-05T17:55:47.228Z,54.15
2023-03-05T18:00:49.502Z,54.49
2023-03-05T18:05:59.535Z,54.75
2023-03-05T18:11:02.042Z,54.87
2023-03-05T18:16:04.467Z,55.06
2023-03-05T18:21:06.636Z,55.01
2023-03-05T18:26:08.875Z,54.93
2023-03-05T18:31:11.237Z,54.53
2023-03-05T18:36:15.222Z,54.73
2023-03-05T18:41:27.533Z,53.45
2023-03-05T18:46:30.268Z,53.73
2023-03-05T18:51:33.868Z,54.18
2023-03-05T18:56:36.014Z,55.03
2023-03-05T19:01:38.500Z,53.90
2023-03-05T19:06:40.695Z,54.13
2023-03-05T19:11:42.896Z,54.30
2023-03-05T19:16:45.107Z,53.88
2023-03-05T19:21:49.529Z,54.39
2023-03-05T19:26:55.381Z,55.03
2023-03-05T19:31:57.689Z,55.57
2023-03-05T19:36:59.878Z,55.67
2023-03-05T19:42:04.614Z,56.01
2023-03-05T19:47:07.305Z,55.59
2023-03-05T19:52:09.615Z,55.58
2023-03-05T19:57:11.896Z,55.87
2023-03-05T20:02:14.063Z,55.91
2023-03-05T20:07:19.413Z,55.39
2023-03-05T20:12:23.087Z,55.47
2023-03-05T20:17:34.906Z,55.50
2023-03-05T20:22:37.055Z,55.81
2023-03-05T20:27:39.639Z,55.81
2023-03-05T20:32:41.823Z,55.63
2023-03-05T20:38:30.745Z,55.57
2023-03-05T20:43:36.602Z,55.43
2023-03-05T20:48:48.050Z,55.97
2023-03-05T20:53:58.082Z,55.02
2023-03-05T20:59:03.867Z,55.38
2023-03-05T21:04:06.293Z,55.08
2023-03-05T21:09:08.426Z,54.57
2023-03-05T21:14:10.631Z,55.09
2023-03-05T21:19:12.743Z,54.40
2023-03-05T21:25:13.856Z,55.22
2023-03-05T21:30:17.961Z,56.09
2023-03-05T21:35:21.792Z,56.26
2023-03-05T21:40:24.042Z,56.24
2023-03-05T21:45:28.183Z,57.27
2023-03-05T21:50:31.820Z,56.97
2023-03-05T21:56:38.187Z,57.09
2023-03-05T22:01:40.294Z,56.79
2023-03-05T22:06:42.474Z,56.96
2023-03-05T22:11:44.947Z,57.39
2023-03-05T22:16:47.101Z,57.18
2023-03-05T22:21:51.363Z,56.47
2023-03-05T22:26:53.454Z,56.47
2023-03-05T22:31:57.767Z,56.98
2023-03-05T22:36:59.906Z,57.27
2023-03-05T22:42:05.372Z,57.33
2023-03-05T22:47:07.483Z,57.74
2023-03-05T22:52:09.588Z,57.86
2023-03-05T22:57:11.996Z,58.16
2023-03-05T23:02:14.141Z,57.56
2023-03-05T23:07:25.028Z,57.88
2023-03-05T23:12:30.199Z,57.75
2023-03-05T23:17:32.575Z,57.88
2023-03-05T23:22:35.888Z,57.76
2023-03-05T23:27:38.308Z,57.19
2023-03-05T23:32:40.640Z,57.06
2023-03-05T23:37:43.218Z,56.82
2023-03-05T23:42:46.159Z,56.82
2023-03-05T23:47:49.049Z,56.66
2023-03-05T23:52:51.689Z,57.88
2023-03-05T23:57:55.205Z,56.90
